Time;durP1;ratioP1;P1;durP2;ratioP2;P2;SDS_P1;SDS_P2;PMS_P1;PMS_P2;Temp;Humidity;BMP_temperature;BMP_pressure;BME280_temperature;BME280_humidity;BME280_pressure;Samples;Min_cycle;Max_cycle;Signal;HPM_P1;HPM_P2
2024/01/13 00:01:36;;;;;;;3.70;3.40;;;;;;;;;;5119559;27;20051;-79
2024/01/13 00:04:02;;;;;;;3.67;3.22;;;;;;;;;;5119543;27;20051;-80
2024/01/13 00:06:28;;;;;;;3.45;3.15;;;;;;;;;;5136885;27;20047;-79
2024/01/13 00:08:54;;;;;;;3.60;2.92;;;;;;;;;;5102295;27;20051;-79
2024/01/13 00:11:20;;;;;;;4.22;2.90;;;;;;;;;;5102154;27;20051;-79
2024/01/13 00:13:46;;;;;;;3.13;2.83;;;;;;;;;;5137333;27;20050;-79
2024/01/13 00:16:12;;;;;;;3.65;3.00;;;;;;;;;;5136923;27;20051;-79
2024/01/13 00:18:38;;;;;;;3.10;2.80;;;;;;;;;;5137565;27;20043;-79
2024/01/13 00:21:04;;;;;;;4.35;3.20;;;;;;;;;;5102219;27;20046;-79
2024/01/13 00:23:30;;;;;;;3.75;3.00;;;;;;;;;;5118989;27;20118;-79
2024/01/13 00:25:56;;;;;;;5.63;2.72;;;;;;;;;;5137337;27;20039;-79
2024/01/13 00:28:23;;;;;;;4.22;2.45;;;;;;;;;;5137089;27;20095;-79
2024/01/13 00:30:49;;;;;;;2.58;2.28;;;;;;;;;;5136936;27;20047;-79
2024/01/13 00:33:15;;;;;;;2.67;2.47;;;;;;;;;;5136944;27;20047;-79
2024/01/13 00:35:41;;;;;;;3.70;2.70;;;;;;;;;;5101193;27;20419;-79
2024/01/13 00:38:07;;;;;;;2.97;2.42;;;;;;;;;;5119041;27;20099;-79
2024/01/13 00:40:33;;;;;;;2.25;2.15;;;;;;;;;;5118690;27;20057;-79
2024/01/13 00:43:00;;;;;;;1.83;1.73;;;;;;;;;;5118714;27;20054;-79
2024/01/13 00:45:26;;;;;;;1.92;1.30;;;;;;;;;;5118559;27;20055;-79
2024/01/13 00:47:52;;;;;;;2.28;1.60;;;;;;;;;;5118460;27;20080;-79
2024/01/13 00:50:18;;;;;;;2.83;1.75;;;;;;;;;;5136428;27;20471;-79
2024/01/13 00:52:44;;;;;;;3.38;1.98;;;;;;;;;;5118736;27;20043;-79
2024/01/13 00:55:10;;;;;;;1.70;1.58;;;;;;;;;;5118279;27;20095;-80
2024/01/13 00:57:36;;;;;;;3.35;2.10;;;;;;;;;;5118362;27;20043;-80
2024/01/13 01:00:02;;;;;;;2.00;1.45;;;;;;;;;;5118295;27;20065;-79
2024/01/13 01:02:28;;;;;;;2.80;1.83;;;;;;;;;;5118161;27;20051;-80
2024/01/13 01:04:54;;;;;;;3.13;1.83;;;;;;;;;;5117721;27;20073;-79
2024/01/13 01:07:20;;;;;;;2.85;2.45;;;;;;;;;;5135977;27;20047;-80
2024/01/13 01:09:46;;;;;;;3.85;2.45;;;;;;;;;;5118178;27;20039;-80
2024/01/13 01:12:12;;;;;;;4.57;2.22;;;;;;;;;;5117799;27;20043;-79
2024/01/13 01:14:38;;;;;;;3.13;2.83;;;;;;;;;;5136185;27;20074;-79
2024/01/13 01:17:05;;;;;;;3.58;2.08;;;;;;;;;;5101135;27;20047;-79
2024/01/13 01:19:31;;;;;;;2.75;2.55;;;;;;;;;;5117879;27;20046;-80
2024/01/13 01:21:57;;;;;;;2.95;2.67;;;;;;;;;;5117701;27;20398;-79
2024/01/13 01:24:23;;;;;;;2.97;2.17;;;;;;;;;;5117948;27;20072;-79
2024/01/13 01:26:49;;;;;;;2.47;2.28;;;;;;;;;;5117875;27;20054;-79
2024/01/13 01:29:15;;;;;;;5.15;2.15;;;;;;;;;;5116753;27;20047;-79
2024/01/13 01:31:41;;;;;;;2.78;2.00;;;;;;;;;;5135746;27;20538;-79
2024/01/13 01:34:07;;;;;;;2.85;2.08;;;;;;;;;;5117613;27;20051;-79
2024/01/13 01:36:33;;;;;;;2.88;1.77;;;;;;;;;;5135179;27;20051;-80
2024/01/13 01:38:59;;;;;;;4.93;2.10;;;;;;;;;;5135003;27;20731;-80
2024/01/13 01:41:25;;;;;;;2.03;1.67;;;;;;;;;;5135616;27;20376;-79
2024/01/13 01:43:51;;;;;;;2.15;1.73;;;;;;;;;;5136088;27;20130;-79
2024/01/13 01:46:20;;;;;;;3.83;2.13;;;;;;;;;;5135416;27;20050;-79
2024/01/13 01:48:47;;;;;;;13.50;2.63;;;;;;;;;;5135506;27;20196;-79
2024/01/13 01:51:19;;;;;;;3.60;1.75;;;;;;;;;;5113428;28;20056;-79
2024/01/13 01:53:46;;;;;;;2.85;1.42;;;;;;;;;;5114893;28;20047;-80
2024/01/13 01:56:14;;;;;;;1.83;1.65;;;;;;;;;;5113669;28;20058;-79
2024/01/13 01:58:41;;;;;;;3.55;2.08;;;;;;;;;;5113695;28;20502;-80
2024/01/13 02:01:09;;;;;;;2.70;2.22;;;;;;;;;;5094558;28;20056;-80
2024/01/13 02:03:35;;;;;;;2.25;1.88;;;;;;;;;;5092827;28;20048;-79
2024/01/13 02:06:02;;;;;;;3.60;1.90;;;;;;;;;;5093762;28;20048;-79
2024/01/13 02:08:29;;;;;;;1.88;1.50;;;;;;;;;;5094747;28;20430;-79
2024/01/13 02:10:55;;;;;;;2.03;1.83;;;;;;;;;;5093174;28;20063;-80
2024/01/13 02:13:21;;;;;;;2.30;2.05;;;;;;;;;;5093200;28;20044;-79
2024/01/13 02:15:47;;;;;;;2.50;2.30;;;;;;;;;;5093999;28;20047;-79
2024/01/13 02:18:13;;;;;;;2.95;2.22;;;;;;;;;;5094490;28;20048;-79
2024/01/13 02:20:39;;;;;;;3.97;2.42;;;;;;;;;;5094052;28;20048;-79
2024/01/13 02:23:05;;;;;;;2.55;2.05;;;;;;;;;;5094079;28;20135;-79
2024/01/13 02:25:31;;;;;;;2.60;2.40;;;;;;;;;;5093844;28;20044;-79
2024/01/13 02:27:58;;;;;;;4.30;3.22;;;;;;;;;;5093585;28;20472;-79
2024/01/13 02:30:24;;;;;;;5.63;3.70;;;;;;;;;;5093973;28;20044;-79
2024/01/13 02:32:50;;;;;;;6.55;3.88;;;;;;;;;;5093778;28;20047;-79
2024/01/13 02:35:16;;;;;;;3.67;3.38;;;;;;;;;;5092094;28;20054;-79
2024/01/13 02:37:42;;;;;;;5.35;3.30;;;;;;;;;;5093866;28;20048;-79
2024/01/13 02:40:09;;;;;;;3.40;3.08;;;;;;;;;;5075881;28;20059;-79
2024/01/13 02:42:35;;;;;;;4.28;3.35;;;;;;;;;;5092467;28;20400;-79
2024/01/13 02:45:01;;;;;;;5.38;3.78;;;;;;;;;;5092953;28;20453;-79
2024/01/13 02:47:43;;;;;;;4.60;3.63;;;;;;;;;;5092760;28;20101;-79
2024/01/13 02:50:09;;;;;;;4.30;3.28;;;;;;;;;;5085820;28;20057;-79
2024/01/13 02:52:36;;;;;;;5.38;4.25;;;;;;;;;;5073465;28;20442;-79
2024/01/13 02:55:03;;;;;;;5.03;3.50;;;;;;;;;;5073524;28;20048;-79
2024/01/13 02:57:29;;;;;;;3.65;3.33;;;;;;;;;;5072531;28;20052;-79
2024/01/13 02:59:55;;;;;;;2.80;2.58;;;;;;;;;;5072374;28;20057;-79
2024/01/13 03:02:21;;;;;;;3.30;3.00;;;;;;;;;;5072548;28;20044;-80
2024/01/13 03:04:47;;;;;;;3.83;3.30;;;;;;;;;;5072468;28;20048;-79
2024/01/13 03:07:13;;;;;;;3.33;2.45;;;;;;;;;;5071372;28;20539;-80
2024/01/13 03:09:39;;;;;;;4.80;3.38;;;;;;;;;;5071916;28;20488;-79
2024/01/13 03:12:05;;;;;;;4.45;2.90;;;;;;;;;;5073730;28;20481;-79
2024/01/13 03:14:31;;;;;;;2.95;2.75;;;;;;;;;;5072396;28;20044;-79
2024/01/13 03:16:57;;;;;;;3.63;3.33;;;;;;;;;;5073388;28;20048;-79
2024/01/13 03:19:23;;;;;;;3.40;3.10;;;;;;;;;;5071959;28;20427;-79
2024/01/13 03:21:49;;;;;;;6.47;3.65;;;;;;;;;;5072323;28;20508;-79
2024/01/13 03:24:15;;;;;;;5.18;4.00;;;;;;;;;;5055590;28;20049;-79
2024/01/13 03:26:41;;;;;;;6.97;4.97;;;;;;;;;;5071947;28;20136;-79
2024/01/13 03:29:08;;;;;;;4.93;4.43;;;;;;;;;;5072063;28;20053;-79
2024/01/13 03:31:34;;;;;;;5.35;4.82;;;;;;;;;;5073085;28;20040;-79
2024/01/13 03:34:00;;;;;;;5.60;4.93;;;;;;;;;;5071815;28;20087;-79
2024/01/13 03:36:26;;;;;;;5.63;5.13;;;;;;;;;;5070850;28;20053;-79
2024/01/13 03:38:52;;;;;;;6.10;4.60;;;;;;;;;;5073087;28;20469;-79
2024/01/13 03:41:22;;;;;;;5.95;4.32;;;;;;;;;;5072053;28;20056;-79
2024/01/13 03:43:49;;;;;;;5.32;4.78;;;;;;;;;;5073281;28;20443;-79
2024/01/13 03:46:15;;;;;;;5.13;4.28;;;;;;;;;;5072982;28;20110;-79
2024/01/13 03:48:42;;;;;;;4.35;3.95;;;;;;;;;;5072071;28;20114;-79
2024/01/13 03:51:08;;;;;;;4.55;4.00;;;;;;;;;;5072116;28;20088;-79
2024/01/13 03:53:35;;;;;;;6.28;4.30;;;;;;;;;;5075473;28;20052;-79
2024/01/13 03:56:02;;;;;;;5.63;4.07;;;;;;;;;;5075569;28;20053;-79
2024/01/13 03:58:28;;;;;;;5.03;4.28;;;;;;;;;;5076551;28;20055;-79
2024/01/13 04:00:54;;;;;;;4.63;4.22;;;;;;;;;;5076444;28;20052;-79
2024/01/13 04:03:21;;;;;;;5.53;4.07;;;;;;;;;;5076260;28;20477;-79
2024/01/13 04:05:47;;;;;;;4.43;4.00;;;;;;;;;;5075519;28;20488;-79
2024/01/13 04:08:13;;;;;;;6.00;4.22;;;;;;;;;;5076611;28;20084;-79
2024/01/13 04:10:39;;;;;;;5.78;3.85;;;;;;;;;;5075124;28;20084;-79
2024/01/13 04:13:10;;;;;;;4.93;4.38;;;;;;;;;;5058196;28;20044;-79
2024/01/13 04:15:36;;;;;;;5.40;3.80;;;;;;;;;;5076588;28;20044;-79
2024/01/13 04:18:02;;;;;;;5.80;3.72;;;;;;;;;;5076338;28;20080;-79
2024/01/13 04:20:28;;;;;;;7.15;3.85;;;;;;;;;;5076337;28;20052;-79
2024/01/13 04:22:54;;;;;;;4.75;3.85;;;;;;;;;;5075807;28;20382;-79
2024/01/13 04:25:20;;;;;;;3.90;3.47;;;;;;;;;;5076098;28;20476;-79
2024/01/13 04:27:48;;;;;;;4.10;3.58;;;;;;;;;;5076139;28;20040;-79
2024/01/13 04:30:14;;;;;;;5.25;3.95;;;;;;;;;;5074479;28;20052;-79
2024/01/13 04:32:42;;;;;;;6.78;3.22;;;;;;;;;;5075813;28;20036;-80
2024/01/13 04:35:08;;;;;;;4.70;3.67;;;;;;;;;;5074137;28;20576;-79
2024/01/13 04:37:34;;;;;;;5.05;3.42;;;;;;;;;;5075757;28;20051;-79
2024/01/13 04:40:00;;;;;;;6.50;3.97;;;;;;;;;;5075656;28;20396;-79
2024/01/13 04:42:26;;;;;;;5.15;3.50;;;;;;;;;;5075792;28;20445;-79
2024/01/13 04:44:52;;;;;;;5.28;3.47;;;;;;;;;;5075373;28;20385;-79
2024/01/13 04:47:19;;;;;;;5.65;3.65;;;;;;;;;;5075577;28;20070;-79
2024/01/13 04:49:45;;;;;;;6.93;3.85;;;;;;;;;;5082014;28;20051;-79
2024/01/13 04:52:12;;;;;;;7.85;3.67;;;;;;;;;;5097976;28;20048;-79
2024/01/13 04:54:38;;;;;;;6.68;3.92;;;;;;;;;;5098087;28;20479;-79
2024/01/13 04:57:04;;;;;;;6.43;3.80;;;;;;;;;;5097986;28;20102;-79
2024/01/13 04:59:30;;;;;;;6.78;4.15;;;;;;;;;;5098472;28;20052;-79
2024/01/13 05:01:56;;;;;;;4.53;3.13;;;;;;;;;;5115859;28;20043;-79
2024/01/13 05:04:23;;;;;;;5.22;3.13;;;;;;;;;;5115925;28;20047;-79
2024/01/13 05:06:49;;;;;;;5.10;2.75;;;;;;;;;;5078999;28;20117;-80
2024/01/13 05:09:15;;;;;;;4.78;3.10;;;;;;;;;;5097015;28;20043;-79
2024/01/13 05:11:41;;;;;;;3.80;2.67;;;;;;;;;;5115662;28;20046;-79
2024/01/13 05:14:07;;;;;;;3.80;2.58;;;;;;;;;;5097464;28;20063;-79
2024/01/13 05:16:33;;;;;;;6.22;3.05;;;;;;;;;;5115403;28;20051;-80
2024/01/13 05:18:59;;;;;;;3.55;2.60;;;;;;;;;;5097663;28;20079;-79
2024/01/13 05:21:25;;;;;;;6.07;2.80;;;;;;;;;;5080780;28;20051;-79
2024/01/13 05:23:51;;;;;;;4.20;2.50;;;;;;;;;;5115336;28;20050;-80
2024/01/13 05:26:17;;;;;;;3.25;2.25;;;;;;;;;;5115445;28;20433;-79
2024/01/13 05:28:43;;;;;;;3.03;2.13;;;;;;;;;;5080585;28;20411;-79
2024/01/13 05:31:09;;;;;;;2.55;2.17;;;;;;;;;;5115252;28;20075;-79
2024/01/13 05:33:35;;;;;;;4.43;2.60;;;;;;;;;;5097241;28;20124;-79
2024/01/13 05:36:01;;;;;;;3.45;2.63;;;;;;;;;;5114799;28;20050;-79
2024/01/13 05:38:27;;;;;;;3.90;2.75;;;;;;;;;;5115210;28;20047;-79
2024/01/13 05:40:53;;;;;;;4.63;2.67;;;;;;;;;;5063871;28;20056;-79
2024/01/13 05:43:20;;;;;;;3.97;2.22;;;;;;;;;;5097032;28;20136;-79
2024/01/13 05:45:47;;;;;;;5.45;2.75;;;;;;;;;;5096884;28;20052;-79
2024/01/13 05:48:13;;;;;;;6.20;3.08;;;;;;;;;;5097066;28;20056;-79
2024/01/13 05:50:39;;;;;;;5.20;3.08;;;;;;;;;;5114859;28;20138;-79
2024/01/13 05:53:05;;;;;;;3.55;2.88;;;;;;;;;;5114809;28;20044;-79
2024/01/13 05:55:31;;;;;;;3.65;3.08;;;;;;;;;;5114848;28;20126;-79
2024/01/13 05:57:57;;;;;;;3.97;3.35;;;;;;;;;;5114579;28;20480;-79
2024/01/13 06:00:23;;;;;;;2.95;2.65;;;;;;;;;;5114706;28;20500;-79
2024/01/13 06:02:49;;;;;;;4.93;2.83;;;;;;;;;;5096872;28;20063;-79
2024/01/13 06:05:15;;;;;;;3.70;2.92;;;;;;;;;;5096288;28;20051;-79
2024/01/13 06:07:41;;;;;;;5.60;3.17;;;;;;;;;;5114697;28;20039;-79
2024/01/13 06:10:07;;;;;;;4.07;3.10;;;;;;;;;;5114397;28;20047;-79
2024/01/13 06:12:33;;;;;;;4.25;3.28;;;;;;;;;;5114473;28;20044;-79
2024/01/13 06:14:59;;;;;;;5.70;3.97;;;;;;;;;;5114185;28;20475;-79
2024/01/13 06:17:25;;;;;;;6.88;4.47;;;;;;;;;;5114634;28;20428;-79
2024/01/13 06:19:51;;;;;;;6.90;3.95;;;;;;;;;;5096456;28;20428;-79
2024/01/13 06:22:17;;;;;;;4.88;3.88;;;;;;;;;;5097052;28;20134;-79
2024/01/13 06:24:43;;;;;;;6.80;4.63;;;;;;;;;;5114434;28;20051;-79
2024/01/13 06:27:09;;;;;;;6.10;3.78;;;;;;;;;;5114704;28;20048;-79
2024/01/13 06:29:35;;;;;;;6.88;4.13;;;;;;;;;;5096457;28;20048;-79
2024/01/13 06:32:02;;;;;;;7.78;4.63;;;;;;;;;;5114221;28;20048;-79
2024/01/13 06:34:28;;;;;;;6.93;4.28;;;;;;;;;;5114231;28;20495;-79
2024/01/13 06:36:54;;;;;;;9.00;4.68;;;;;;;;;;5113574;28;20436;-79
2024/01/13 06:39:20;;;;;;;7.13;4.45;;;;;;;;;;5114192;28;20047;-79
2024/01/13 06:41:46;;;;;;;5.90;4.45;;;;;;;;;;5114200;28;20122;-79
2024/01/13 06:44:12;;;;;;;10.05;5.97;;;;;;;;;;5096253;28;20052;-79
2024/01/13 06:46:38;;;;;;;7.90;4.95;;;;;;;;;;5113962;28;20047;-79
2024/01/13 06:49:04;;;;;;;8.05;5.50;;;;;;;;;;5114162;28;20101;-79
2024/01/13 06:51:30;;;;;;;9.95;6.40;;;;;;;;;;5114333;28;20492;-79
2024/01/13 06:53:56;;;;;;;8.40;5.63;;;;;;;;;;5095939;28;20134;-79
2024/01/13 06:56:22;;;;;;;8.82;6.10;;;;;;;;;;5114673;28;20437;-79
2024/01/13 06:58:48;;;;;;;12.27;5.93;;;;;;;;;;5114045;28;20043;-79
2024/01/13 07:01:14;;;;;;;9.68;6.00;;;;;;;;;;5114005;28;20105;-79
2024/01/13 07:03:42;;;;;;;10.85;5.90;;;;;;;;;;5099117;28;20045;-79
2024/01/13 07:06:08;;;;;;;7.93;4.97;;;;;;;;;;5115688;28;20467;-79
2024/01/13 07:08:34;;;;;;;8.02;5.53;;;;;;;;;;5134519;28;20047;-79
2024/01/13 07:11:00;;;;;;;10.00;4.80;;;;;;;;;;5134421;28;20039;-79
2024/01/13 07:13:26;;;;;;;6.32;4.22;;;;;;;;;;5134302;28;20259;-79
2024/01/13 07:15:53;;;;;;;11.07;5.05;;;;;;;;;;5134402;28;20047;-79
2024/01/13 07:18:20;;;;;;;6.07;4.97;;;;;;;;;;5134469;28;20090;-79
2024/01/13 07:20:46;;;;;;;5.28;4.47;;;;;;;;;;5134383;28;20043;-79
2024/01/13 07:23:12;;;;;;;8.32;4.63;;;;;;;;;;5134370;28;20055;-79
2024/01/13 07:25:38;;;;;;;5.65;4.30;;;;;;;;;;5116143;28;20054;-79
2024/01/13 07:28:04;;;;;;;10.05;4.45;;;;;;;;;;5137778;27;20082;-79
2024/01/13 07:30:30;;;;;;;6.25;4.22;;;;;;;;;;5120151;27;20043;-79
2024/01/13 07:32:57;;;;;;;8.10;4.35;;;;;;;;;;5119841;27;20183;-79
2024/01/13 07:35:23;;;;;;;5.80;4.47;;;;;;;;;;5137949;27;20050;-79
2024/01/13 07:37:49;;;;;;;6.05;4.10;;;;;;;;;;5138072;27;20078;-79
2024/01/13 07:40:17;;;;;;;4.93;3.63;;;;;;;;;;5137702;27;20042;-79
2024/01/13 07:42:43;;;;;;;7.20;4.15;;;;;;;;;;5119962;27;20058;-79
2024/01/13 07:45:09;;;;;;;5.85;3.45;;;;;;;;;;5120409;27;20051;-86
2024/01/13 07:47:35;;;;;;;5.93;3.60;;;;;;;;;;5119629;27;20134;-80
2024/01/13 07:50:03;;;;;;;6.43;4.18;;;;;;;;;;5102624;27;20058;-80
2024/01/13 07:52:29;;;;;;;5.80;3.58;;;;;;;;;;5137869;27;20051;-80
2024/01/13 07:54:55;;;;;;;6.18;3.53;;;;;;;;;;5119454;27;20047;-80
2024/01/13 07:57:22;;;;;;;4.75;3.35;;;;;;;;;;5119888;27;20387;-80
2024/01/13 07:59:48;;;;;;;7.68;4.13;;;;;;;;;;5119867;27;20069;-81
2024/01/13 08:02:15;;;;;;;6.63;3.67;;;;;;;;;;5119674;27;20143;-81
2024/01/13 08:04:43;;;;;;;6.32;5.18;;;;;;;;;;5102548;27;20046;-82
2024/01/13 08:07:09;;;;;;;8.80;4.95;;;;;;;;;;5085330;27;20047;-81
2024/01/13 08:09:35;;;;;;;6.88;5.15;;;;;;;;;;5119312;27;20525;-82
2024/01/13 08:12:01;;;;;;;7.22;4.70;;;;;;;;;;5102229;27;20121;-81
2024/01/13 08:14:27;;;;;;;6.75;4.50;;;;;;;;;;5119184;27;20047;-82
2024/01/13 08:16:53;;;;;;;7.70;4.78;;;;;;;;;;5102158;27;20097;-84
2024/01/13 08:19:19;;;;;;;7.15;4.53;;;;;;;;;;5102559;27;20091;-81
2024/01/13 08:21:46;;;;;;;6.53;3.97;;;;;;;;;;5119175;27;20567;-82
2024/01/13 08:24:12;;;;;;;5.22;4.18;;;;;;;;;;5085408;27;20049;-81
2024/01/13 08:26:39;;;;;;;4.80;3.88;;;;;;;;;;5137006;27;20051;-83
2024/01/13 08:29:05;;;;;;;4.72;3.38;;;;;;;;;;5101980;27;20082;-82
2024/01/13 08:31:31;;;;;;;7.03;3.60;;;;;;;;;;5084960;27;20448;-82
2024/01/13 08:33:57;;;;;;;7.95;3.13;;;;;;;;;;5101594;27;20122;-82
2024/01/13 08:36:23;;;;;;;3.88;2.95;;;;;;;;;;5118468;27;20054;-81
2024/01/13 08:38:49;;;;;;;4.72;3.53;;;;;;;;;;5101425;27;20047;-84
2024/01/13 08:41:16;;;;;;;6.22;3.40;;;;;;;;;;5084902;27;20068;-81
2024/01/13 08:43:42;;;;;;;3.92;2.92;;;;;;;;;;5119331;27;20054;-80
2024/01/13 08:46:10;;;;;;;3.65;2.80;;;;;;;;;;5119557;27;20047;-80
2024/01/13 08:48:36;;;;;;;5.80;3.22;;;;;;;;;;5119206;27;20049;-82
2024/01/13 08:51:02;;;;;;;3.58;3.25;;;;;;;;;;5097611;28;20051;-79
2024/01/13 08:53:28;;;;;;;6.03;3.88;;;;;;;;;;5116560;28;20047;-79
2024/01/13 08:55:55;;;;;;;8.68;4.70;;;;;;;;;;5098271;28;20055;-79
2024/01/13 08:58:21;;;;;;;6.90;5.05;;;;;;;;;;5115073;28;20052;-79
2024/01/13 09:00:47;;;;;;;6.82;6.05;;;;;;;;;;5116028;28;20131;-79
2024/01/13 09:03:13;;;;;;;10.90;6.32;;;;;;;;;;5116063;28;20040;-79
2024/01/13 09:05:39;;;;;;;11.45;7.45;;;;;;;;;;5115499;28;20048;-79
2024/01/13 09:08:05;;;;;;;11.05;7.82;;;;;;;;;;5115815;28;20050;-79
2024/01/13 09:10:31;;;;;;;12.60;8.90;;;;;;;;;;5115622;28;20056;-79
2024/01/13 09:12:57;;;;;;;15.65;10.35;;;;;;;;;;5115676;28;20036;-79
2024/01/13 09:15:23;;;;;;;17.48;11.20;;;;;;;;;;5114720;28;20395;-79
2024/01/13 09:17:49;;;;;;;20.75;13.18;;;;;;;;;;5114712;28;20040;-79
2024/01/13 09:20:15;;;;;;;26.80;14.85;;;;;;;;;;5097643;28;20055;-79
2024/01/13 09:22:41;;;;;;;28.25;15.68;;;;;;;;;;5115587;28;20039;-79
2024/01/13 09:25:08;;;;;;;27.30;15.52;;;;;;;;;;5115441;28;20128;-79
2024/01/13 09:27:34;;;;;;;31.75;16.90;;;;;;;;;;5115419;28;20054;-79
2024/01/13 09:30:00;;;;;;;27.45;16.13;;;;;;;;;;5115343;28;20068;-79
2024/01/13 09:32:27;;;;;;;30.73;17.25;;;;;;;;;;5114073;28;20039;-79
2024/01/13 09:34:53;;;;;;;30.98;17.75;;;;;;;;;;5114309;28;20044;-79
2024/01/13 09:37:19;;;;;;;30.55;18.20;;;;;;;;;;5114093;28;20054;-79
2024/01/13 09:39:45;;;;;;;35.03;19.70;;;;;;;;;;5115141;28;20051;-79
2024/01/13 09:42:18;;;;;;;36.50;19.63;;;;;;;;;;5113904;28;20518;-79
2024/01/13 09:44:44;;;;;;;37.53;22.70;;;;;;;;;;5114196;28;20501;-79
2024/01/13 09:47:10;;;;;;;43.67;24.60;;;;;;;;;;5115155;28;20051;-80
2024/01/13 09:49:36;;;;;;;40.05;24.67;;;;;;;;;;5116375;27;20043;-78
2024/01/13 09:52:03;;;;;;;42.47;25.02;;;;;;;;;;5135701;27;20078;-79
2024/01/13 09:54:29;;;;;;;45.72;24.40;;;;;;;;;;5135454;27;20043;-79
2024/01/13 09:56:56;;;;;;;41.05;24.42;;;;;;;;;;5117299;27;20055;-79
2024/01/13 09:59:25;;;;;;;45.25;25.02;;;;;;;;;;5117284;27;20463;-79
2024/01/13 10:01:52;;;;;;;45.30;25.48;;;;;;;;;;5117335;27;20054;-79
2024/01/13 10:04:18;;;;;;;45.53;25.85;;;;;;;;;;5117220;27;20505;-79
2024/01/13 10:06:47;;;;;;;45.60;26.45;;;;;;;;;;5116727;27;20046;-79
2024/01/13 10:09:13;;;;;;;47.08;26.95;;;;;;;;;;5135183;27;20047;-79
2024/01/13 10:11:39;;;;;;;43.42;26.30;;;;;;;;;;5117095;27;20039;-79
2024/01/13 10:14:06;;;;;;;42.67;25.05;;;;;;;;;;5135185;27;20046;-78
2024/01/13 10:16:33;;;;;;;40.97;25.45;;;;;;;;;;5117021;27;20524;-79
2024/01/13 10:19:03;;;;;;;48.90;28.30;;;;;;;;;;5116943;27;20043;-79
2024/01/13 10:21:30;;;;;;;40.83;25.42;;;;;;;;;;5116830;27;20083;-79
2024/01/13 10:23:57;;;;;;;42.55;25.65;;;;;;;;;;5135068;27;20479;-79
2024/01/13 10:26:27;;;;;;;43.65;26.63;;;;;;;;;;5116879;27;20506;-79
2024/01/13 10:28:53;;;;;;;49.53;28.55;;;;;;;;;;5116894;27;20051;-79
2024/01/13 10:31:20;;;;;;;46.78;29.98;;;;;;;;;;5116783;28;20043;-79
2024/01/13 10:33:49;;;;;;;49.13;29.42;;;;;;;;;;5116770;27;20135;-79
2024/01/13 10:36:16;;;;;;;47.83;28.58;;;;;;;;;;5133980;27;20042;-79
2024/01/13 10:38:43;;;;;;;44.97;29.15;;;;;;;;;;5134856;27;20125;-79
2024/01/13 10:41:11;;;;;;;43.75;29.08;;;;;;;;;;5116658;28;20047;-79
2024/01/13 10:43:47;;;;;;;46.47;30.10;;;;;;;;;;5134670;27;20047;-79
2024/01/13 10:46:14;;;;;;;48.08;29.70;;;;;;;;;;5116653;27;20107;-79
2024/01/13 10:48:51;;;;;;;44.00;28.45;;;;;;;;;;5134654;28;20043;-79
2024/01/13 10:51:26;;;;;;;51.67;29.52;;;;;;;;;;5116111;28;20063;-79
2024/01/13 10:53:53;;;;;;;49.08;31.17;;;;;;;;;;5134677;28;20054;-79
2024/01/13 10:56:19;;;;;;;47.90;30.98;;;;;;;;;;5099495;28;20051;-79
2024/01/13 10:58:49;;;;;;;49.65;31.90;;;;;;;;;;5116421;28;20051;-79
2024/01/13 11:01:15;;;;;;;49.17;30.92;;;;;;;;;;5136998;27;20130;-79
2024/01/13 11:03:41;;;;;;;49.40;31.48;;;;;;;;;;5120877;27;20066;-78
2024/01/13 11:06:07;;;;;;;50.20;31.42;;;;;;;;;;5120288;27;20047;-79
2024/01/13 11:08:35;;;;;;;49.15;33.40;;;;;;;;;;5120461;27;20043;-79
2024/01/13 11:11:01;;;;;;;53.15;33.55;;;;;;;;;;5120614;27;20451;-79
2024/01/13 11:13:30;;;;;;;57.80;36.45;;;;;;;;;;5120470;27;20050;-79
2024/01/13 11:15:56;;;;;;;50.03;34.88;;;;;;;;;;5138612;27;20084;-79
2024/01/13 11:18:22;;;;;;;54.40;34.58;;;;;;;;;;5120491;27;20047;-79
2024/01/13 11:21:01;;;;;;;53.80;35.58;;;;;;;;;;5138945;27;20388;-79
2024/01/13 11:23:27;;;;;;;61.30;38.53;;;;;;;;;;5120440;27;20122;-79
2024/01/13 11:25:53;;;;;;;56.95;37.88;;;;;;;;;;5139269;27;20433;-79
2024/01/13 11:28:22;;;;;;;57.75;37.65;;;;;;;;;;5103203;27;20542;-79
2024/01/13 11:30:48;;;;;;;58.95;39.90;;;;;;;;;;5120266;27;20054;-79
2024/01/13 11:33:15;;;;;;;59.00;39.22;;;;;;;;;;5138160;27;20083;-79
2024/01/13 11:35:45;;;;;;;60.38;41.40;;;;;;;;;;5120145;27;20039;-79
2024/01/13 11:38:13;;;;;;;65.55;41.05;;;;;;;;;;5138283;27;20487;-79
2024/01/13 11:40:45;;;;;;;66.18;42.20;;;;;;;;;;5120041;27;20047;-79
2024/01/13 11:43:18;;;;;;;65.72;40.40;;;;;;;;;;5137521;27;20079;-79
2024/01/13 11:45:49;;;;;;;62.63;42.38;;;;;;;;;;5099488;28;20137;-79
2024/01/13 11:48:30;;;;;;;68.70;43.50;;;;;;;;;;5099452;27;20176;-79
2024/01/13 11:50:56;;;;;;;60.40;39.08;;;;;;;;;;5082202;28;20059;-79
2024/01/13 11:53:34;;;;;;;64.15;41.90;;;;;;;;;;5057564;28;20128;-79
2024/01/13 11:56:00;;;;;;;65.95;40.33;;;;;;;;;;5074067;28;20119;-79
2024/01/13 11:58:27;;;;;;;58.95;39.53;;;;;;;;;;5074964;28;20048;-79
2024/01/13 12:00:53;;;;;;;62.38;37.65;;;;;;;;;;5074963;28;20049;-79
2024/01/13 12:03:19;;;;;;;59.50;39.08;;;;;;;;;;5075452;28;20048;-79
2024/01/13 12:05:45;;;;;;;55.13;37.95;;;;;;;;;;5075874;28;20135;-80
2024/01/13 12:08:12;;;;;;;59.00;37.95;;;;;;;;;;5075109;28;20053;-80
2024/01/13 12:10:42;;;;;;;59.25;39.08;;;;;;;;;;5076443;28;20078;-79
2024/01/13 12:13:16;;;;;;;55.97;37.08;;;;;;;;;;5074225;28;20045;-79
2024/01/13 12:15:46;;;;;;;57.67;37.13;;;;;;;;;;5076228;28;20048;-79
2024/01/13 12:18:21;;;;;;;63.65;39.97;;;;;;;;;;5076549;28;20056;-79
2024/01/13 12:20:48;;;;;;;59.65;38.85;;;;;;;;;;5074984;28;20048;-79
2024/01/13 12:23:15;;;;;;;56.35;36.33;;;;;;;;;;5076074;28;20044;-79
2024/01/13 12:25:41;;;;;;;56.70;37.28;;;;;;;;;;5074801;28;20080;-79
2024/01/13 12:28:07;;;;;;;58.40;37.03;;;;;;;;;;5076048;28;20059;-79
2024/01/13 12:30:38;;;;;;;60.55;40.15;;;;;;;;;;5075076;28;20055;-79
2024/01/13 12:33:07;;;;;;;60.10;38.88;;;;;;;;;;5075919;28;20056;-79
2024/01/13 12:35:33;;;;;;;53.58;35.63;;;;;;;;;;5074924;28;20064;-79
2024/01/13 12:38:00;;;;;;;61.30;39.63;;;;;;;;;;5074194;28;20127;-79
2024/01/13 12:40:27;;;;;;;53.60;36.95;;;;;;;;;;5074501;28;20048;-79
2024/01/13 12:42:53;;;;;;;60.25;35.50;;;;;;;;;;5074791;28;20086;-79
2024/01/13 12:45:19;;;;;;;57.60;35.75;;;;;;;;;;5074744;28;20048;-79
2024/01/13 12:47:45;;;;;;;58.35;36.70;;;;;;;;;;5075008;28;20489;-85
2024/01/13 12:50:11;;;;;;;52.15;34.97;;;;;;;;;;5068169;28;20067;-80
2024/01/13 12:52:41;;;;;;;55.53;34.88;;;;;;;;;;5097696;28;20043;-80
2024/01/13 12:55:07;;;;;;;55.92;35.75;;;;;;;;;;5098254;28;20132;-80
2024/01/13 12:57:34;;;;;;;53.72;35.13;;;;;;;;;;5098028;28;20055;-80
2024/01/13 13:00:02;;;;;;;49.38;34.17;;;;;;;;;;5098012;28;20051;-80
2024/01/13 13:02:28;;;;;;;50.97;32.97;;;;;;;;;;5098226;28;20430;-80
2024/01/13 13:04:54;;;;;;;52.17;32.58;;;;;;;;;;5097975;28;20053;-80
2024/01/13 13:07:24;;;;;;;50.22;33.63;;;;;;;;;;5097326;28;20557;-80
2024/01/13 13:09:51;;;;;;;48.42;31.20;;;;;;;;;;5115563;28;20051;-80
2024/01/13 13:12:17;;;;;;;52.40;33.33;;;;;;;;;;5115723;28;20036;-79
2024/01/13 13:14:43;;;;;;;50.88;31.70;;;;;;;;;;5098584;28;20444;-79
2024/01/13 13:17:09;;;;;;;39.33;27.33;;;;;;;;;;5097767;28;20157;-80
2024/01/13 13:19:36;;;;;;;44.38;27.70;;;;;;;;;;5115445;28;20052;-80
2024/01/13 13:22:03;;;;;;;45.15;29.35;;;;;;;;;;5115433;28;20089;-80
2024/01/13 13:24:31;;;;;;;43.72;27.80;;;;;;;;;;5096504;28;20065;-80
2024/01/13 13:26:57;;;;;;;46.20;28.17;;;;;;;;;;5115478;28;20043;-79
2024/01/13 13:29:24;;;;;;;39.85;28.05;;;;;;;;;;5115507;28;20055;-79
2024/01/13 13:31:51;;;;;;;41.47;28.45;;;;;;;;;;5097276;28;20488;-80
2024/01/13 13:34:17;;;;;;;39.47;25.42;;;;;;;;;;5097231;28;20490;-80
2024/01/13 13:36:43;;;;;;;48.28;29.00;;;;;;;;;;5096556;28;20048;-80
2024/01/13 13:39:09;;;;;;;41.10;28.23;;;;;;;;;;5097290;28;20056;-80
2024/01/13 13:41:35;;;;;;;43.10;29.05;;;;;;;;;;5097187;28;20097;-80
2024/01/13 13:44:01;;;;;;;46.58;29.92;;;;;;;;;;5140545;27;20050;-79
2024/01/13 13:46:29;;;;;;;48.58;30.02;;;;;;;;;;5117613;27;20043;-80
2024/01/13 13:48:55;;;;;;;45.58;27.48;;;;;;;;;;5117325;27;20043;-80
2024/01/13 13:51:21;;;;;;;45.92;28.90;;;;;;;;;;5117092;27;20061;-80
2024/01/13 13:53:47;;;;;;;44.40;29.05;;;;;;;;;;5117093;27;20095;-80
2024/01/13 13:56:13;;;;;;;38.83;23.63;;;;;;;;;;5100485;27;20047;-80
2024/01/13 13:58:40;;;;;;;45.80;27.80;;;;;;;;;;5117339;27;20050;-80
2024/01/13 14:01:06;;;;;;;39.88;26.55;;;;;;;;;;5113956;27;20453;-80
2024/01/13 14:03:32;;;;;;;41.70;26.25;;;;;;;;;;5134318;27;20489;-80
2024/01/13 14:05:58;;;;;;;38.88;26.15;;;;;;;;;;5115076;27;20079;-80
2024/01/13 14:08:26;;;;;;;40.47;27.95;;;;;;;;;;5114479;27;20050;-78
2024/01/13 14:10:53;;;;;;;45.00;26.40;;;;;;;;;;5115759;27;20498;-78
2024/01/13 14:13:19;;;;;;;40.75;26.58;;;;;;;;;;5116912;27;20065;-78
2024/01/13 14:15:45;;;;;;;39.50;26.17;;;;;;;;;;5116537;27;20095;-78
2024/01/13 14:18:11;;;;;;;38.95;25.05;;;;;;;;;;5115747;27;20039;-78
2024/01/13 14:20:37;;;;;;;41.13;26.20;;;;;;;;;;5140172;27;20445;-78
2024/01/13 14:23:03;;;;;;;43.58;27.33;;;;;;;;;;5118522;27;20202;-78
2024/01/13 14:25:29;;;;;;;38.40;25.13;;;;;;;;;;5116171;27;20081;-78
2024/01/13 14:27:55;;;;;;;42.38;24.50;;;;;;;;;;5116255;28;20049;-78
2024/01/13 14:30:22;;;;;;;35.83;22.15;;;;;;;;;;5116106;27;20107;-79